sensor_id;sensor_type;location;lat;lon;timestamp;pressure;altitude;pressure_sealevel;temperature;humidity
38812;BME280;24553;51.640;-0.752;2023-05-21T00:01:49;101598.34;;;6.45;100.00
38812;BME280;24553;51.640;-0.752;2023-05-21T00:04:14;101597.50;;;6.44;100.00
38812;BME280;24553;51.640;-0.752;2023-05-21T00:06:40;101600.97;;;6.45;100.00
38812;BME280;24553;51.640;-0.752;2023-05-21T00:09:05;101599.03;;;6.47;100.00
38812;BME280;24553;51.640;-0.752;2023-05-21T00:11:31;101595.16;;;6.51;100.00
38812;BME280;24553;51.640;-0.752;2023-05-21T00:13:57;101589.34;;;6.57;100.00
38812;BME280;24553;51.640;-0.752;2023-05-21T00:16:23;101583.78;;;6.70;100.00
38812;BME280;24553;51.640;-0.752;2023-05-21T00:18:48;101585.19;;;6.74;100.00
38812;BME280;24553;51.640;-0.752;2023-05-21T00:21:14;101576.59;;;6.82;100.00
38812;BME280;24553;51.640;-0.752;2023-05-21T00:23:41;101577.97;;;6.86;100.00
38812;BME280;24553;51.640;-0.752;2023-05-21T00:26:07;101576.31;;;6.85;100.00
38812;BME280;24553;51.640;-0.752;2023-05-21T00:28:32;101567.69;;;6.83;100.00
38812;BME280;24553;51.640;-0.752;2023-05-21T00:30:58;101570.75;;;6.88;100.00
38812;BME280;24553;51.640;-0.752;2023-05-21T00:33:23;101571.56;;;6.88;100.00
38812;BME280;24553;51.640;-0.752;2023-05-21T00:35:51;101568.25;;;6.96;100.00
38812;BME280;24553;51.640;-0.752;2023-05-21T00:38:16;101567.66;;;7.02;100.00
38812;BME280;24553;51.640;-0.752;2023-05-21T00:40:42;101568.53;;;7.03;100.00
38812;BME280;24553;51.640;-0.752;2023-05-21T00:43:07;101561.03;;;7.08;100.00
38812;BME280;24553;51.640;-0.752;2023-05-21T00:45:34;101566.53;;;7.14;100.00
38812;BME280;24553;51.640;-0.752;2023-05-21T00:48:04;101559.84;;;7.20;100.00
38812;BME280;24553;51.640;-0.752;2023-05-21T00:50:30;101560.72;;;7.20;100.00
38812;BME280;24553;51.640;-0.752;2023-05-21T00:52:56;101569.69;;;7.28;100.00
38812;BME280;24553;51.640;-0.752;2023-05-21T00:55:21;101571.38;;;7.29;100.00
38812;BME280;24553;51.640;-0.752;2023-05-21T00:57:47;101575.44;;;7.23;100.00
38812;BME280;24553;51.640;-0.752;2023-05-21T01:00:14;101569.16;;;7.24;100.00
38812;BME280;24553;51.640;-0.752;2023-05-21T01:02:40;101569.59;;;7.19;100.00
38812;BME280;24553;51.640;-0.752;2023-05-21T01:05:06;101574.44;;;7.14;100.00
38812;BME280;24553;51.640;-0.752;2023-05-21T01:07:37;101575.31;;;7.05;100.00
38812;BME280;24553;51.640;-0.752;2023-05-21T01:10:04;101573.50;;;7.06;100.00
38812;BME280;24553;51.640;-0.752;2023-05-21T01:12:31;101579.03;;;7.12;100.00
38812;BME280;24553;51.640;-0.752;2023-05-21T01:15:04;101581.13;;;7.09;100.00
38812;BME280;24553;51.640;-0.752;2023-05-21T01:17:30;101580.72;;;7.04;100.00
38812;BME280;24553;51.640;-0.752;2023-05-21T01:19:56;101574.63;;;7.03;100.00
38812;BME280;24553;51.640;-0.752;2023-05-21T01:22:22;101571.28;;;7.01;100.00
38812;BME280;24553;51.640;-0.752;2023-05-21T01:24:49;101572.38;;;7.08;100.00
38812;BME280;24553;51.640;-0.752;2023-05-21T01:27:15;101574.19;;;7.08;100.00
38812;BME280;24553;51.640;-0.752;2023-05-21T01:29:41;101577.78;;;7.07;100.00
38812;BME280;24553;51.640;-0.752;2023-05-21T01:32:17;101580.00;;;7.11;100.00
38812;BME280;24553;51.640;-0.752;2023-05-21T01:34:58;101581.13;;;7.18;100.00
38812;BME280;24553;51.640;-0.752;2023-05-21T01:37:35;101572.22;;;7.19;100.00
38812;BME280;24553;51.640;-0.752;2023-05-21T01:40:08;101570.56;;;7.18;100.00
38812;BME280;24553;51.640;-0.752;2023-05-21T01:42:35;101572.63;;;7.25;100.00
38812;BME280;24553;51.640;-0.752;2023-05-21T01:45:03;101575.13;;;7.26;100.00
38812;BME280;24553;51.640;-0.752;2023-05-21T01:47:31;101582.47;;;7.32;100.00
38812;BME280;24553;51.640;-0.752;2023-05-21T01:49:58;101582.88;;;7.37;100.00
38812;BME280;24553;51.640;-0.752;2023-05-21T01:52:24;101579.84;;;7.32;100.00
38812;BME280;24553;51.640;-0.752;2023-05-21T01:54:50;101570.69;;;7.27;100.00
38812;BME280;24553;51.640;-0.752;2023-05-21T01:57:16;101570.00;;;7.25;100.00
38812;BME280;24553;51.640;-0.752;2023-05-21T01:59:42;101569.59;;;7.19;100.00
38812;BME280;24553;51.640;-0.752;2023-05-21T02:02:08;101570.97;;;7.24;100.00
38812;BME280;24553;51.640;-0.752;2023-05-21T02:04:33;101577.06;;;7.34;100.00
38812;BME280;24553;51.640;-0.752;2023-05-21T02:06:59;101575.38;;;7.33;100.00
38812;BME280;24553;51.640;-0.752;2023-05-21T02:09:24;101578.00;;;7.33;100.00
38812;BME280;24553;51.640;-0.752;2023-05-21T02:11:49;101580.41;;;7.36;100.00
38812;BME280;24553;51.640;-0.752;2023-05-21T02:14:15;101576.38;;;7.32;100.00
38812;BME280;24553;51.640;-0.752;2023-05-21T02:16:40;101571.22;;;7.30;100.00
38812;BME280;24553;51.640;-0.752;2023-05-21T02:19:06;101578.31;;;7.30;100.00
38812;BME280;24553;51.640;-0.752;2023-05-21T02:21:34;101575.97;;;7.27;100.00
38812;BME280;24553;51.640;-0.752;2023-05-21T02:24:00;101583.75;;;7.18;100.00
38812;BME280;24553;51.640;-0.752;2023-05-21T02:26:25;101577.91;;;7.25;100.00
38812;BME280;24553;51.640;-0.752;2023-05-21T02:28:51;101575.53;;;7.31;100.00
38812;BME280;24553;51.640;-0.752;2023-05-21T02:31:17;101574.72;;;7.31;100.00
38812;BME280;24553;51.640;-0.752;2023-05-21T02:33:42;101577.63;;;7.28;100.00
38812;BME280;24553;51.640;-0.752;2023-05-21T02:36:07;101576.78;;;7.27;100.00
38812;BME280;24553;51.640;-0.752;2023-05-21T02:38:38;101569.03;;;7.26;100.00
38812;BME280;24553;51.640;-0.752;2023-05-21T02:41:08;101561.38;;;7.22;100.00
38812;BME280;24553;51.640;-0.752;2023-05-21T02:43:33;101557.09;;;7.21;100.00
38812;BME280;24553;51.640;-0.752;2023-05-21T02:45:59;101569.16;;;7.24;100.00
38812;BME280;24553;51.640;-0.752;2023-05-21T02:48:24;101575.13;;;7.26;100.00
38812;BME280;24553;51.640;-0.752;2023-05-21T02:50:49;101577.63;;;7.28;100.00
38812;BME280;24553;51.640;-0.752;2023-05-21T02:53:15;101571.81;;;7.24;100.00
38812;BME280;24553;51.640;-0.752;2023-05-21T02:55:40;101576.94;;;7.26;100.00
38812;BME280;24553;51.640;-0.752;2023-05-21T02:58:06;101556.09;;;7.22;100.00
38812;BME280;24553;51.640;-0.752;2023-05-21T03:00:31;101558.47;;;7.26;100.00
38812;BME280;24553;51.640;-0.752;2023-05-21T03:02:57;101560.66;;;7.30;100.00
38812;BME280;24553;51.640;-0.752;2023-05-21T03:05:22;101558.28;;;7.37;100.00
38812;BME280;24553;51.640;-0.752;2023-05-21T03:07:48;101560.94;;;7.37;100.00
38812;BME280;24553;51.640;-0.752;2023-05-21T03:10:13;101556.19;;;7.40;100.00
38812;BME280;24553;51.640;-0.752;2023-05-21T03:12:39;101556.88;;;7.42;100.00
38812;BME280;24553;51.640;-0.752;2023-05-21T03:15:05;101555.25;;;7.41;100.00
38812;BME280;24553;51.640;-0.752;2023-05-21T03:17:30;101553.72;;;7.39;100.00
38812;BME280;24553;51.640;-0.752;2023-05-21T03:19:56;101551.06;;;7.39;100.00
38812;BME280;24553;51.640;-0.752;2023-05-21T03:22:21;101550.38;;;7.37;100.00
38812;BME280;24553;51.640;-0.752;2023-05-21T03:24:46;101553.16;;;7.35;100.00
38812;BME280;24553;51.640;-0.752;2023-05-21T03:27:12;101552.31;;;7.35;100.00
38812;BME280;24553;51.640;-0.752;2023-05-21T03:29:38;101550.13;;;7.30;100.00
38812;BME280;24553;51.640;-0.752;2023-05-21T03:32:04;101553.44;;;7.32;100.00
38812;BME280;24553;51.640;-0.752;2023-05-21T03:34:30;101546.81;;;7.28;100.00
38812;BME280;24553;51.640;-0.752;2023-05-21T03:36:58;101548.75;;;7.26;100.00
38812;BME280;24553;51.640;-0.752;2023-05-21T03:39:23;101548.19;;;7.22;100.00
38812;BME280;24553;51.640;-0.752;2023-05-21T03:41:49;101554.59;;;7.20;100.00
38812;BME280;24553;51.640;-0.752;2023-05-21T03:44:14;101547.06;;;7.25;100.00
38812;BME280;24553;51.640;-0.752;2023-05-21T03:46:39;101548.34;;;7.31;100.00
38812;BME280;24553;51.640;-0.752;2023-05-21T03:49:05;101559.53;;;7.33;100.00
38812;BME280;24553;51.640;-0.752;2023-05-21T03:51:30;101555.38;;;7.30;100.00
38812;BME280;24553;51.640;-0.752;2023-05-21T03:53:58;101553.75;;;7.29;100.00
38812;BME280;24553;51.640;-0.752;2023-05-21T03:56:23;101557.38;;;7.28;100.00
38812;BME280;24553;51.640;-0.752;2023-05-21T03:58:50;101553.34;;;7.24;100.00
38812;BME280;24553;51.640;-0.752;2023-05-21T04:01:15;101560.84;;;7.19;100.00
38812;BME280;24553;51.640;-0.752;2023-05-21T04:03:41;101558.03;;;7.30;100.00
38812;BME280;24553;51.640;-0.752;2023-05-21T04:06:08;101573.72;;;7.41;100.00
38812;BME280;24553;51.640;-0.752;2023-05-21T04:08:34;101571.47;;;7.47;100.00
38812;BME280;24553;51.640;-0.752;2023-05-21T04:11:00;101575.34;;;7.42;100.00
38812;BME280;24553;51.640;-0.752;2023-05-21T04:13:26;101572.59;;;7.44;100.00
38812;BME280;24553;51.640;-0.752;2023-05-21T04:15:52;101569.94;;;7.44;100.00
38812;BME280;24553;51.640;-0.752;2023-05-21T04:18:18;101571.47;;;7.47;100.00
38812;BME280;24553;51.640;-0.752;2023-05-21T04:20:44;101574.50;;;7.52;100.00
38812;BME280;24553;51.640;-0.752;2023-05-21T04:23:10;101575.56;;;7.59;100.00
38812;BME280;24553;51.640;-0.752;2023-05-21T04:25:35;101578.75;;;7.72;100.00
38812;BME280;24553;51.640;-0.752;2023-05-21T04:28:02;101575.63;;;7.77;100.00
38812;BME280;24553;51.640;-0.752;2023-05-21T04:30:28;101571.66;;;7.73;100.00
38812;BME280;24553;51.640;-0.752;2023-05-21T04:32:53;101569.13;;;7.71;100.00
38812;BME280;24553;51.640;-0.752;2023-05-21T04:35:19;101575.53;;;7.69;100.00
38812;BME280;24553;51.640;-0.752;2023-05-21T04:37:44;101576.03;;;7.82;100.00
38812;BME280;24553;51.640;-0.752;2023-05-21T04:40:13;101565.47;;;7.82;100.00
38812;BME280;24553;51.640;-0.752;2023-05-21T04:42:45;101572.72;;;7.80;100.00
38812;BME280;24553;51.640;-0.752;2023-05-21T04:45:12;101578.84;;;7.80;100.00
38812;BME280;24553;51.640;-0.752;2023-05-21T04:47:37;101587.16;;;7.85;100.00
38812;BME280;24553;51.640;-0.752;2023-05-21T04:50:05;101583.00;;;7.83;100.00
38812;BME280;24553;51.640;-0.752;2023-05-21T04:52:30;101590.53;;;7.78;100.00
38812;BME280;24553;51.640;-0.752;2023-05-21T04:54:55;101591.34;;;7.78;100.00
38812;BME280;24553;51.640;-0.752;2023-05-21T04:57:22;101589.97;;;7.74;100.00
38812;BME280;24553;51.640;-0.752;2023-05-21T04:59:49;101587.72;;;7.79;100.00
38812;BME280;24553;51.640;-0.752;2023-05-21T05:02:14;101587.28;;;7.84;100.00
38812;BME280;24553;51.640;-0.752;2023-05-21T05:04:40;101586.31;;;7.85;100.00
38812;BME280;24553;51.640;-0.752;2023-05-21T05:07:05;101573.53;;;7.90;100.00
38812;BME280;24553;51.640;-0.752;2023-05-21T05:09:31;101578.56;;;7.74;100.00
38812;BME280;24553;51.640;-0.752;2023-05-21T05:11:56;101577.38;;;7.96;100.00
38812;BME280;24553;51.640;-0.752;2023-05-21T05:14:22;101576.38;;;7.97;100.00
38812;BME280;24553;51.640;-0.752;2023-05-21T05:16:47;101576.25;;;7.98;100.00
38812;BME280;24553;51.640;-0.752;2023-05-21T05:19:12;101568.72;;;8.03;100.00
38812;BME280;24553;51.640;-0.752;2023-05-21T05:21:38;101577.59;;;8.02;100.00
38812;BME280;24553;51.640;-0.752;2023-05-21T05:24:03;101577.94;;;8.17;100.00
38812;BME280;24553;51.640;-0.752;2023-05-21T05:26:29;101579.72;;;8.26;100.00
38812;BME280;24553;51.640;-0.752;2023-05-21T05:28:54;101569.72;;;8.38;100.00
38812;BME280;24553;51.640;-0.752;2023-05-21T05:31:19;101578.91;;;8.44;100.00
38812;BME280;24553;51.640;-0.752;2023-05-21T05:33:45;101581.16;;;8.57;100.00
38812;BME280;24553;51.640;-0.752;2023-05-21T05:36:10;101574.16;;;8.65;100.00
38812;BME280;24553;51.640;-0.752;2023-05-21T05:38:35;101564.94;;;8.69;100.00
38812;BME280;24553;51.640;-0.752;2023-05-21T05:41:00;101565.47;;;8.73;100.00
38812;BME280;24553;51.640;-0.752;2023-05-21T05:43:26;101556.78;;;8.81;100.00
38812;BME280;24553;51.640;-0.752;2023-05-21T05:45:51;101562.13;;;8.89;100.00
38812;BME280;24553;51.640;-0.752;2023-05-21T05:48:17;101550.72;;;8.88;100.00
38812;BME280;24553;51.640;-0.752;2023-05-21T05:50:42;101550.41;;;8.91;100.00
38812;BME280;24553;51.640;-0.752;2023-05-21T05:53:08;101552.13;;;9.01;100.00
38812;BME280;24553;51.640;-0.752;2023-05-21T05:55:33;101541.44;;;9.10;100.00
38812;BME280;24553;51.640;-0.752;2023-05-21T05:57:58;101546.63;;;9.20;100.00
38812;BME280;24553;51.640;-0.752;2023-05-21T06:00:24;101551.91;;;9.46;100.00
38812;BME280;24553;51.640;-0.752;2023-05-21T06:02:50;101548.63;;;9.52;100.00
38812;BME280;24553;51.640;-0.752;2023-05-21T06:05:15;101547.47;;;9.55;100.00
38812;BME280;24553;51.640;-0.752;2023-05-21T06:07:41;101551.47;;;9.59;100.00
38812;BME280;24553;51.640;-0.752;2023-05-21T06:10:06;101547.53;;;9.63;100.00
38812;BME280;24553;51.640;-0.752;2023-05-21T06:12:32;101547.56;;;9.71;100.00
38812;BME280;24553;51.640;-0.752;2023-05-21T06:14:58;101550.22;;;9.71;100.00
38812;BME280;24553;51.640;-0.752;2023-05-21T06:17:23;101547.41;;;9.73;100.00
38812;BME280;24553;51.640;-0.752;2023-05-21T06:19:48;101542.63;;;9.76;100.00
38812;BME280;24553;51.640;-0.752;2023-05-21T06:22:14;101542.81;;;9.83;100.00
38812;BME280;24553;51.640;-0.752;2023-05-21T06:24:39;101541.19;;;9.90;100.00
38812;BME280;24553;51.640;-0.752;2023-05-21T06:27:05;101547.06;;;10.18;100.00
38812;BME280;24553;51.640;-0.752;2023-05-21T06:29:30;101539.00;;;10.28;100.00
38812;BME280;24553;51.640;-0.752;2023-05-21T06:31:55;101538.84;;;10.38;100.00
38812;BME280;24553;51.640;-0.752;2023-05-21T06:34:20;101529.41;;;10.43;100.00
38812;BME280;24553;51.640;-0.752;2023-05-21T06:36:46;101530.41;;;10.59;100.00
38812;BME280;24553;51.640;-0.752;2023-05-21T06:39:12;101527.91;;;10.65;100.00
38812;BME280;24553;51.640;-0.752;2023-05-21T06:41:37;101533.53;;;10.79;100.00
38812;BME280;24553;51.640;-0.752;2023-05-21T06:44:03;101524.44;;;10.89;100.00
38812;BME280;24553;51.640;-0.752;2023-05-21T06:46:28;101522.41;;;10.91;100.00
38812;BME280;24553;51.640;-0.752;2023-05-21T06:48:53;101526.56;;;10.94;100.00
38812;BME280;24553;51.640;-0.752;2023-05-21T06:51:19;101516.91;;;11.18;100.00
38812;BME280;24553;51.640;-0.752;2023-05-21T06:53:44;101518.81;;;11.48;100.00
38812;BME280;24553;51.640;-0.752;2023-05-21T06:56:10;101519.63;;;11.57;100.00
38812;BME280;24553;51.640;-0.752;2023-05-21T06:58:35;101510.47;;;11.60;100.00
38812;BME280;24553;51.640;-0.752;2023-05-21T07:01:00;101512.06;;;11.69;100.00
38812;BME280;24553;51.640;-0.752;2023-05-21T07:03:26;101507.88;;;11.83;100.00
38812;BME280;24553;51.640;-0.752;2023-05-21T07:05:52;101495.00;;;12.03;100.00
38812;BME280;24553;51.640;-0.752;2023-05-21T07:08:17;101500.16;;;12.27;100.00
38812;BME280;24553;51.640;-0.752;2023-05-21T07:10:44;101485.16;;;12.34;100.00
38812;BME280;24553;51.640;-0.752;2023-05-21T07:13:10;101490.69;;;12.48;100.00
38812;BME280;24553;51.640;-0.752;2023-05-21T07:15:35;101490.19;;;12.67;100.00
38812;BME280;24553;51.640;-0.752;2023-05-21T07:18:00;101485.72;;;12.82;100.00
38812;BME280;24553;51.640;-0.752;2023-05-21T07:20:26;101482.53;;;13.02;100.00
38812;BME280;24553;51.640;-0.752;2023-05-21T07:22:51;101481.91;;;13.15;100.00
38812;BME280;24553;51.640;-0.752;2023-05-21T07:25:16;101459.78;;;13.14;100.00
38812;BME280;24553;51.640;-0.752;2023-05-21T07:27:42;101462.09;;;13.32;100.00
38812;BME280;24553;51.640;-0.752;2023-05-21T07:30:08;101469.66;;;13.50;100.00
38812;BME280;24553;51.640;-0.752;2023-05-21T07:32:33;101467.00;;;13.50;100.00
38812;BME280;24553;51.640;-0.752;2023-05-21T07:34:59;101466.56;;;13.61;100.00
38812;BME280;24553;51.640;-0.752;2023-05-21T07:37:27;101467.25;;;13.70;100.00
38812;BME280;24553;51.640;-0.752;2023-05-21T07:39:55;101466.03;;;13.87;100.00
38812;BME280;24553;51.640;-0.752;2023-05-21T07:42:21;101469.91;;;14.06;100.00
38812;BME280;24553;51.640;-0.752;2023-05-21T07:44:46;101474.09;;;14.15;100.00
38812;BME280;24553;51.640;-0.752;2023-05-21T07:47:11;101482.84;;;14.09;100.00
38812;BME280;24553;51.640;-0.752;2023-05-21T07:49:36;101489.47;;;14.35;100.00
38812;BME280;24553;51.640;-0.752;2023-05-21T07:52:02;101483.63;;;14.46;100.00
38812;BME280;24553;51.640;-0.752;2023-05-21T07:54:27;101481.13;;;14.45;100.00
38812;BME280;24553;51.640;-0.752;2023-05-21T07:56:52;101476.25;;;14.48;100.00
38812;BME280;24553;51.640;-0.752;2023-05-21T07:59:18;101478.91;;;14.27;100.00
38812;BME280;24553;51.640;-0.752;2023-05-21T08:01:43;101477.59;;;14.59;100.00
38812;BME280;24553;51.640;-0.752;2023-05-21T08:04:08;101472.31;;;14.66;100.00
38812;BME280;24553;51.640;-0.752;2023-05-21T08:06:34;101477.13;;;14.77;100.00
38812;BME280;24553;51.640;-0.752;2023-05-21T08:09:01;101464.09;;;14.95;100.00
38812;BME280;24553;51.640;-0.752;2023-05-21T08:11:27;101463.75;;;15.05;100.00
38812;BME280;24553;51.640;-0.752;2023-05-21T08:13:52;101456.56;;;15.05;100.00
38812;BME280;24553;51.640;-0.752;2023-05-21T08:16:18;101465.50;;;15.26;100.00
38812;BME280;24553;51.640;-0.752;2023-05-21T08:18:43;101458.31;;;15.26;100.00
38812;BME280;24553;51.640;-0.752;2023-05-21T08:21:08;101454.66;;;15.41;100.00
38812;BME280;24553;51.640;-0.752;2023-05-21T08:23:34;101451.63;;;15.51;100.00
38812;BME280;24553;51.640;-0.752;2023-05-21T08:25:59;101458.28;;;15.68;100.00
38812;BME280;24553;51.640;-0.752;2023-05-21T08:28:24;101461.44;;;15.78;100.00
38812;BME280;24553;51.640;-0.752;2023-05-21T08:30:51;101456.53;;;16.02;100.00
38812;BME280;24553;51.640;-0.752;2023-05-21T08:33:17;101460.28;;;16.14;100.00
38812;BME280;24553;51.640;-0.752;2023-05-21T08:35:42;101459.03;;;16.30;100.00
38812;BME280;24553;51.640;-0.752;2023-05-21T08:38:07;101458.44;;;16.21;100.00
38812;BME280;24553;51.640;-0.752;2023-05-21T08:40:33;101460.66;;;16.18;100.00
38812;BME280;24553;51.640;-0.752;2023-05-21T08:43:00;101461.72;;;16.30;100.00
38812;BME280;24553;51.640;-0.752;2023-05-21T08:45:25;101453.28;;;16.46;100.00
38812;BME280;24553;51.640;-0.752;2023-05-21T08:47:55;101462.13;;;16.47;100.00
38812;BME280;24553;51.640;-0.752;2023-05-21T08:50:23;101460.28;;;16.61;100.00
38812;BME280;24553;51.640;-0.752;2023-05-21T08:52:50;101472.84;;;16.60;100.00
38812;BME280;24553;51.640;-0.752;2023-05-21T08:55:15;101468.28;;;16.67;100.00
38812;BME280;24553;51.640;-0.752;2023-05-21T08:57:42;101457.81;;;16.86;100.00
38812;BME280;24553;51.640;-0.752;2023-05-21T09:00:08;101459.84;;;16.90;100.00
38812;BME280;24553;51.640;-0.752;2023-05-21T09:02:36;101451.16;;;17.08;100.00
38812;BME280;24553;51.640;-0.752;2023-05-21T09:05:05;101457.31;;;17.22;100.00
38812;BME280;24553;51.640;-0.752;2023-05-21T09:07:35;101460.25;;;17.07;100.00
38812;BME280;24553;51.640;-0.752;2023-05-21T09:10:05;101459.44;;;16.93;100.00
38812;BME280;24553;51.640;-0.752;2023-05-21T09:12:33;101447.84;;;17.06;100.00
38812;BME280;24553;51.640;-0.752;2023-05-21T09:14:59;101458.19;;;16.96;100.00
38812;BME280;24553;51.640;-0.752;2023-05-21T09:17:25;101453.16;;;17.33;100.00
38812;BME280;24553;51.640;-0.752;2023-05-21T09:20:06;101453.91;;;17.53;100.00
38812;BME280;24553;51.640;-0.752;2023-05-21T09:22:42;101454.19;;;17.77;100.00
38812;BME280;24553;51.640;-0.752;2023-05-21T09:25:10;101460.03;;;18.05;100.00
38812;BME280;24553;51.640;-0.752;2023-05-21T09:27:36;101467.97;;;18.19;100.00
38812;BME280;24553;51.640;-0.752;2023-05-21T09:30:03;101462.34;;;17.95;100.00
38812;BME280;24553;51.640;-0.752;2023-05-21T09:32:29;101460.19;;;18.11;100.00
38812;BME280;24553;51.640;-0.752;2023-05-21T09:34:54;101451.97;;;18.05;100.00
38812;BME280;24553;51.640;-0.752;2023-05-21T09:37:20;101448.25;;;18.31;100.00
38812;BME280;24553;51.640;-0.752;2023-05-21T09:39:47;101449.13;;;18.50;100.00
38812;BME280;24553;51.640;-0.752;2023-05-21T09:42:12;101448.13;;;18.70;100.00
38812;BME280;24553;51.640;-0.752;2023-05-21T09:44:37;101445.50;;;19.07;100.00
38812;BME280;24553;51.640;-0.752;2023-05-21T09:47:04;101437.75;;;18.99;100.00
38812;BME280;24553;51.640;-0.752;2023-05-21T09:49:29;101434.41;;;19.03;100.00
38812;BME280;24553;51.640;-0.752;2023-05-21T09:51:56;101427.81;;;18.99;100.00
38812;BME280;24553;51.640;-0.752;2023-05-21T09:54:23;101437.59;;;19.12;100.00
38812;BME280;24553;51.640;-0.752;2023-05-21T09:56:50;101425.19;;;19.29;100.00
38812;BME280;24553;51.640;-0.752;2023-05-21T09:59:16;101426.81;;;19.30;100.00
38812;BME280;24553;51.640;-0.752;2023-05-21T10:01:41;101423.47;;;19.35;100.00
38812;BME280;24553;51.640;-0.752;2023-05-21T10:04:08;101431.06;;;19.38;100.00
38812;BME280;24553;51.640;-0.752;2023-05-21T10:06:37;101435.56;;;19.26;100.00
38812;BME280;24553;51.640;-0.752;2023-05-21T10:09:10;101439.22;;;18.94;100.00
38812;BME280;24553;51.640;-0.752;2023-05-21T10:11:36;101433.28;;;19.11;100.00
38812;BME280;24553;51.640;-0.752;2023-05-21T10:14:15;101426.09;;;19.42;100.00
38812;BME280;24553;51.640;-0.752;2023-05-21T10:16:42;101432.44;;;19.29;100.00
38812;BME280;24553;51.640;-0.752;2023-05-21T10:19:08;101432.00;;;18.95;100.00
38812;BME280;24553;51.640;-0.752;2023-05-21T10:21:37;101430.75;;;19.16;100.00
38812;BME280;24553;51.640;-0.752;2023-05-21T10:24:05;101420.38;;;19.50;100.00
38812;BME280;24553;51.640;-0.752;2023-05-21T10:26:32;101419.94;;;19.83;100.00
38812;BME280;24553;51.640;-0.752;2023-05-21T10:28:57;101424.59;;;19.27;99.92
38812;BME280;24553;51.640;-0.752;2023-05-21T10:31:25;101421.91;;;19.27;100.00
38812;BME280;24553;51.640;-0.752;2023-05-21T10:33:53;101413.22;;;20.04;100.00
38812;BME280;24553;51.640;-0.752;2023-05-21T10:36:19;101414.19;;;20.45;100.00
38812;BME280;24553;51.640;-0.752;2023-05-21T10:38:46;101420.41;;;20.81;98.16
38812;BME280;24553;51.640;-0.752;2023-05-21T10:41:13;101422.19;;;20.63;100.00
38812;BME280;24553;51.640;-0.752;2023-05-21T10:43:58;101415.72;;;20.64;99.36
38812;BME280;24553;51.640;-0.752;2023-05-21T10:58:06;101418.44;;;19.38;100.00
38812;BME280;24553;51.640;-0.752;2023-05-21T11:00:35;101416.63;;;19.51;100.00
38812;BME280;24553;51.640;-0.752;2023-05-21T11:03:00;101413.25;;;18.88;100.00
38812;BME280;24553;51.640;-0.752;2023-05-21T11:05:55;101411.53;;;18.94;100.00
38812;BME280;24553;51.640;-0.752;2023-05-21T11:08:29;101413.09;;;19.20;100.00
38812;BME280;24553;51.640;-0.752;2023-05-21T11:10:56;101400.09;;;19.17;100.00
38812;BME280;24553;51.640;-0.752;2023-05-21T11:13:24;101397.97;;;18.89;100.00
38812;BME280;24553;51.640;-0.752;2023-05-21T11:18:22;101412.22;;;19.08;100.00
38812;BME280;24553;51.640;-0.752;2023-05-21T11:20:50;101394.97;;;18.79;100.00
38812;BME280;24553;51.640;-0.752;2023-05-21T11:23:16;101404.88;;;18.35;100.00
38812;BME280;24553;51.640;-0.752;2023-05-21T11:25:41;101405.81;;;18.22;100.00
38812;BME280;24553;51.640;-0.752;2023-05-21T11:28:06;101413.47;;;18.18;100.00
38812;BME280;24553;51.640;-0.752;2023-05-21T11:30:35;101408.97;;;18.12;100.00
38812;BME280;24553;51.640;-0.752;2023-05-21T11:38:09;101404.91;;;18.53;100.00
38812;BME280;24553;51.640;-0.752;2023-05-21T11:40:34;101398.88;;;18.58;100.00
38812;BME280;24553;51.640;-0.752;2023-05-21T11:43:00;101390.06;;;18.50;100.00
38812;BME280;24553;51.640;-0.752;2023-05-21T11:45:30;101396.84;;;18.53;100.00
38812;BME280;24553;51.640;-0.752;2023-05-21T11:47:56;101395.81;;;18.54;100.00
38812;BME280;24553;51.640;-0.752;2023-05-21T11:50:22;101387.09;;;18.59;100.00
38812;BME280;24553;51.640;-0.752;2023-05-21T11:52:48;101385.69;;;18.56;100.00
38812;BME280;24553;51.640;-0.752;2023-05-21T11:55:13;101381.31;;;18.99;100.00
38812;BME280;24553;51.640;-0.752;2023-05-21T11:57:41;101389.94;;;19.37;100.00
38812;BME280;24553;51.640;-0.752;2023-05-21T12:00:12;101386.91;;;19.15;100.00
38812;BME280;24553;51.640;-0.752;2023-05-21T12:02:44;101386.97;;;19.09;100.00
38812;BME280;24553;51.640;-0.752;2023-05-21T12:05:10;101394.75;;;18.99;100.00
38812;BME280;24553;51.640;-0.752;2023-05-21T12:07:36;101390.78;;;19.01;100.00
38812;BME280;24553;51.640;-0.752;2023-05-21T12:10:02;101394.13;;;19.15;100.00
38812;BME280;24553;51.640;-0.752;2023-05-21T12:12:28;101382.25;;;19.23;100.00
38812;BME280;24553;51.640;-0.752;2023-05-21T12:14:57;101377.97;;;19.33;100.00
38812;BME280;24553;51.640;-0.752;2023-05-21T12:17:23;101377.06;;;19.39;100.00
38812;BME280;24553;51.640;-0.752;2023-05-21T12:19:50;101384.09;;;19.40;100.00
38812;BME280;24553;51.640;-0.752;2023-05-21T12:22:16;101374.28;;;19.16;100.00
38812;BME280;24553;51.640;-0.752;2023-05-21T12:24:43;101367.41;;;19.50;100.00
38812;BME280;24553;51.640;-0.752;2023-05-21T12:27:09;101356.44;;;19.94;100.00
38812;BME280;24553;51.640;-0.752;2023-05-21T12:29:40;101362.03;;;19.80;96.57
38812;BME280;24553;51.640;-0.752;2023-05-21T12:32:08;101361.19;;;19.20;100.00
38812;BME280;24553;51.640;-0.752;2023-05-21T12:34:44;101351.22;;;19.08;100.00
38812;BME280;24553;51.640;-0.752;2023-05-21T12:37:24;101355.88;;;19.31;100.00
38812;BME280;24553;51.640;-0.752;2023-05-21T12:39:52;101350.72;;;19.60;98.22
38812;BME280;24553;51.640;-0.752;2023-05-21T12:44:51;101333.53;;;20.90;95.63
38812;BME280;24553;51.640;-0.752;2023-05-21T12:47:16;101328.94;;;21.31;95.64
38812;BME280;24553;51.640;-0.752;2023-05-21T12:49:44;101342.72;;;21.18;89.51
38812;BME280;24553;51.640;-0.752;2023-05-21T12:52:13;101321.91;;;20.61;90.78
38812;BME280;24553;51.640;-0.752;2023-05-21T12:54:40;101313.56;;;20.75;91.48